sensor_id;sensor_type;location;lat;lon;timestamp;P1;durP1;ratioP1;P2;durP2;ratioP2
28176;SDS011;15461;41.652;9.378;2023-05-07T00:01:59;6.43;;;4.35;;
28176;SDS011;15461;41.652;9.378;2023-05-07T00:04:25;4.57;;;4.07;;
28176;SDS011;15461;41.652;9.378;2023-05-07T00:06:53;6.45;;;4.65;;
28176;SDS011;15461;41.652;9.378;2023-05-07T00:09:19;6.82;;;4.22;;
28176;SDS011;15461;41.652;9.378;2023-05-07T00:11:45;5.22;;;4.68;;
28176;SDS011;15461;41.652;9.378;2023-05-07T00:14:10;5.13;;;4.40;;
28176;SDS011;15461;41.652;9.378;2023-05-07T00:16:36;6.32;;;4.85;;
28176;SDS011;15461;41.652;9.378;2023-05-07T00:19:03;5.32;;;4.68;;
28176;SDS011;15461;41.652;9.378;2023-05-07T00:21:29;5.93;;;5.22;;
28176;SDS011;15461;41.652;9.378;2023-05-07T00:23:55;6.57;;;4.90;;
28176;SDS011;15461;41.652;9.378;2023-05-07T00:26:21;6.43;;;4.72;;
28176;SDS011;15461;41.652;9.378;2023-05-07T00:28:49;5.57;;;4.63;;
28176;SDS011;15461;41.652;9.378;2023-05-07T00:31:15;7.25;;;4.97;;
28176;SDS011;15461;41.652;9.378;2023-05-07T00:33:41;5.80;;;4.25;;
28176;SDS011;15461;41.652;9.378;2023-05-07T00:36:07;6.47;;;4.32;;
28176;SDS011;15461;41.652;9.378;2023-05-07T00:38:32;5.07;;;4.13;;
28176;SDS011;15461;41.652;9.378;2023-05-07T00:40:58;6.28;;;4.40;;
28176;SDS011;15461;41.652;9.378;2023-05-07T00:43:24;6.50;;;4.40;;
28176;SDS011;15461;41.652;9.378;2023-05-07T00:45:50;4.38;;;3.97;;
28176;SDS011;15461;41.652;9.378;2023-05-07T00:48:17;6.47;;;4.20;;
28176;SDS011;15461;41.652;9.378;2023-05-07T00:50:43;7.18;;;4.85;;
28176;SDS011;15461;41.652;9.378;2023-05-07T00:53:09;5.78;;;4.00;;
28176;SDS011;15461;41.652;9.378;2023-05-07T00:55:35;7.07;;;4.53;;
28176;SDS011;15461;41.652;9.378;2023-05-07T00:58:02;4.72;;;3.90;;
28176;SDS011;15461;41.652;9.378;2023-05-07T01:00:28;7.07;;;4.32;;
28176;SDS011;15461;41.652;9.378;2023-05-07T01:02:54;7.32;;;4.43;;
28176;SDS011;15461;41.652;9.378;2023-05-07T01:05:20;7.45;;;4.53;;
28176;SDS011;15461;41.652;9.378;2023-05-07T01:07:48;5.57;;;4.55;;
28176;SDS011;15461;41.652;9.378;2023-05-07T01:10:15;4.95;;;4.30;;
28176;SDS011;15461;41.652;9.378;2023-05-07T01:12:42;5.95;;;4.13;;
28176;SDS011;15461;41.652;9.378;2023-05-07T01:15:09;6.68;;;4.22;;
28176;SDS011;15461;41.652;9.378;2023-05-07T01:17:36;5.13;;;4.07;;
28176;SDS011;15461;41.652;9.378;2023-05-07T01:20:05;5.25;;;4.18;;
28176;SDS011;15461;41.652;9.378;2023-05-07T01:22:33;6.60;;;4.30;;
28176;SDS011;15461;41.652;9.378;2023-05-07T01:25:02;7.35;;;4.43;;
28176;SDS011;15461;41.652;9.378;2023-05-07T01:27:30;5.07;;;4.05;;
28176;SDS011;15461;41.652;9.378;2023-05-07T01:29:56;7.03;;;4.50;;
28176;SDS011;15461;41.652;9.378;2023-05-07T01:32:33;8.38;;;4.78;;
28176;SDS011;15461;41.652;9.378;2023-05-07T01:37:35;5.45;;;4.07;;
28176;SDS011;15461;41.652;9.378;2023-05-07T01:40:01;4.97;;;4.47;;
28176;SDS011;15461;41.652;9.378;2023-05-07T01:42:28;7.30;;;4.22;;
28176;SDS011;15461;41.652;9.378;2023-05-07T01:44:55;7.18;;;3.92;;
28176;SDS011;15461;41.652;9.378;2023-05-07T01:47:21;6.82;;;4.63;;
28176;SDS011;15461;41.652;9.378;2023-05-07T01:49:48;7.47;;;4.50;;
28176;SDS011;15461;41.652;9.378;2023-05-07T01:52:14;6.55;;;4.05;;
28176;SDS011;15461;41.652;9.378;2023-05-07T01:54:40;5.07;;;4.32;;
28176;SDS011;15461;41.652;9.378;2023-05-07T01:57:06;5.50;;;4.20;;
28176;SDS011;15461;41.652;9.378;2023-05-07T01:59:32;5.70;;;4.32;;
28176;SDS011;15461;41.652;9.378;2023-05-07T02:01:58;5.53;;;4.22;;
28176;SDS011;15461;41.652;9.378;2023-05-07T02:04:24;5.60;;;4.57;;
28176;SDS011;15461;41.652;9.378;2023-05-07T02:06:51;5.60;;;4.22;;
28176;SDS011;15461;41.652;9.378;2023-05-07T02:09:18;5.47;;;4.30;;
28176;SDS011;15461;41.652;9.378;2023-05-07T02:11:47;6.07;;;4.38;;
28176;SDS011;15461;41.652;9.378;2023-05-07T02:14:14;4.55;;;4.03;;
28176;SDS011;15461;41.652;9.378;2023-05-07T02:16:41;7.35;;;4.40;;
28176;SDS011;15461;41.652;9.378;2023-05-07T02:19:08;5.40;;;4.55;;
28176;SDS011;15461;41.652;9.378;2023-05-07T02:21:34;6.80;;;4.28;;
28176;SDS011;15461;41.652;9.378;2023-05-07T02:24:00;4.93;;;4.43;;
28176;SDS011;15461;41.652;9.378;2023-05-07T02:26:26;5.50;;;4.50;;
28176;SDS011;15461;41.652;9.378;2023-05-07T02:28:52;4.65;;;4.22;;
28176;SDS011;15461;41.652;9.378;2023-05-07T02:31:19;6.47;;;4.68;;
28176;SDS011;15461;41.652;9.378;2023-05-07T02:33:45;4.82;;;4.32;;
28176;SDS011;15461;41.652;9.378;2023-05-07T02:36:12;6.32;;;4.30;;
28176;SDS011;15461;41.652;9.378;2023-05-07T02:38:44;5.82;;;4.45;;
28176;SDS011;15461;41.652;9.378;2023-05-07T02:41:10;4.97;;;4.30;;
28176;SDS011;15461;41.652;9.378;2023-05-07T02:43:36;5.72;;;4.68;;
28176;SDS011;15461;41.652;9.378;2023-05-07T02:46:06;6.82;;;4.72;;
28176;SDS011;15461;41.652;9.378;2023-05-07T02:48:37;5.25;;;4.57;;
28176;SDS011;15461;41.652;9.378;2023-05-07T02:51:03;8.15;;;4.60;;
28176;SDS011;15461;41.652;9.378;2023-05-07T02:53:32;5.35;;;4.68;;
28176;SDS011;15461;41.652;9.378;2023-05-07T02:55:59;5.53;;;4.60;;
28176;SDS011;15461;41.652;9.378;2023-05-07T02:58:26;7.78;;;4.20;;
28176;SDS011;15461;41.652;9.378;2023-05-07T03:00:52;6.70;;;5.35;;
28176;SDS011;15461;41.652;9.378;2023-05-07T03:03:40;6.07;;;4.88;;
28176;SDS011;15461;41.652;9.378;2023-05-07T03:06:06;6.28;;;4.50;;
28176;SDS011;15461;41.652;9.378;2023-05-07T03:08:32;5.18;;;4.60;;
28176;SDS011;15461;41.652;9.378;2023-05-07T03:10:58;6.47;;;4.72;;
28176;SDS011;15461;41.652;9.378;2023-05-07T03:13:24;5.55;;;4.30;;
28176;SDS011;15461;41.652;9.378;2023-05-07T03:15:51;9.02;;;4.68;;
28176;SDS011;15461;41.652;9.378;2023-05-07T03:18:17;4.97;;;4.35;;
28176;SDS011;15461;41.652;9.378;2023-05-07T03:20:43;5.45;;;4.70;;
28176;SDS011;15461;41.652;9.378;2023-05-07T03:23:09;8.38;;;5.00;;
28176;SDS011;15461;41.652;9.378;2023-05-07T03:25:35;5.25;;;4.65;;
28176;SDS011;15461;41.652;9.378;2023-05-07T03:28:01;6.57;;;4.53;;
28176;SDS011;15461;41.652;9.378;2023-05-07T03:30:36;5.55;;;4.78;;
28176;SDS011;15461;41.652;9.378;2023-05-07T03:33:02;6.78;;;4.53;;
28176;SDS011;15461;41.652;9.378;2023-05-07T03:35:28;6.47;;;4.85;;
28176;SDS011;15461;41.652;9.378;2023-05-07T03:37:55;5.85;;;5.25;;
28176;SDS011;15461;41.652;9.378;2023-05-07T03:40:21;5.82;;;4.93;;
28176;SDS011;15461;41.652;9.378;2023-05-07T03:42:51;5.20;;;4.68;;
28176;SDS011;15461;41.652;9.378;2023-05-07T03:45:20;7.15;;;4.90;;
28176;SDS011;15461;41.652;9.378;2023-05-07T03:47:55;7.05;;;4.97;;
28176;SDS011;15461;41.652;9.378;2023-05-07T03:50:21;5.80;;;4.70;;
28176;SDS011;15461;41.652;9.378;2023-05-07T03:52:48;6.68;;;5.25;;
28176;SDS011;15461;41.652;9.378;2023-05-07T03:55:16;5.05;;;4.57;;
28176;SDS011;15461;41.652;9.378;2023-05-07T03:57:47;6.32;;;5.05;;
28176;SDS011;15461;41.652;9.378;2023-05-07T04:00:14;6.30;;;5.00;;
28176;SDS011;15461;41.652;9.378;2023-05-07T04:02:45;5.20;;;4.70;;
28176;SDS011;15461;41.652;9.378;2023-05-07T04:05:13;5.55;;;4.65;;
28176;SDS011;15461;41.652;9.378;2023-05-07T04:07:42;5.35;;;4.50;;
28176;SDS011;15461;41.652;9.378;2023-05-07T04:10:10;5.28;;;4.70;;
28176;SDS011;15461;41.652;9.378;2023-05-07T04:12:38;5.88;;;5.20;;
28176;SDS011;15461;41.652;9.378;2023-05-07T04:15:06;7.10;;;4.93;;
28176;SDS011;15461;41.652;9.378;2023-05-07T04:17:32;5.95;;;4.80;;
28176;SDS011;15461;41.652;9.378;2023-05-07T04:19:59;5.68;;;4.78;;
28176;SDS011;15461;41.652;9.378;2023-05-07T04:22:26;5.38;;;4.78;;
28176;SDS011;15461;41.652;9.378;2023-05-07T04:24:52;8.50;;;5.10;;
28176;SDS011;15461;41.652;9.378;2023-05-07T04:27:18;6.50;;;4.93;;
28176;SDS011;15461;41.652;9.378;2023-05-07T04:29:45;6.57;;;5.03;;
28176;SDS011;15461;41.652;9.378;2023-05-07T04:32:13;5.55;;;5.05;;
28176;SDS011;15461;41.652;9.378;2023-05-07T04:34:40;7.40;;;5.00;;
28176;SDS011;15461;41.652;9.378;2023-05-07T04:37:06;8.05;;;4.80;;
28176;SDS011;15461;41.652;9.378;2023-05-07T04:39:33;12.07;;;5.15;;
28176;SDS011;15461;41.652;9.378;2023-05-07T04:42:02;5.80;;;5.20;;
28176;SDS011;15461;41.652;9.378;2023-05-07T04:44:28;5.55;;;4.95;;
28176;SDS011;15461;41.652;9.378;2023-05-07T04:46:56;6.60;;;4.97;;
28176;SDS011;15461;41.652;9.378;2023-05-07T04:49:23;8.63;;;5.00;;
28176;SDS011;15461;41.652;9.378;2023-05-07T04:51:52;5.78;;;4.72;;
28176;SDS011;15461;41.652;9.378;2023-05-07T04:54:21;5.68;;;4.88;;
28176;SDS011;15461;41.652;9.378;2023-05-07T04:56:46;7.60;;;5.32;;
28176;SDS011;15461;41.652;9.378;2023-05-07T04:59:13;5.78;;;4.80;;
28176;SDS011;15461;41.652;9.378;2023-05-07T05:01:39;6.68;;;5.10;;
28176;SDS011;15461;41.652;9.378;2023-05-07T05:04:06;6.28;;;5.47;;
28176;SDS011;15461;41.652;9.378;2023-05-07T05:06:32;5.85;;;5.25;;
28176;SDS011;15461;41.652;9.378;2023-05-07T05:09:00;8.27;;;5.40;;
28176;SDS011;15461;41.652;9.378;2023-05-07T05:11:28;5.82;;;5.18;;
28176;SDS011;15461;41.652;9.378;2023-05-07T05:13:54;7.68;;;5.60;;
28176;SDS011;15461;41.652;9.378;2023-05-07T05:16:20;7.90;;;5.72;;
28176;SDS011;15461;41.652;9.378;2023-05-07T05:18:47;47.20;;;6.10;;
28176;SDS011;15461;41.652;9.378;2023-05-07T05:21:16;22.40;;;5.97;;
28176;SDS011;15461;41.652;9.378;2023-05-07T05:23:45;12.20;;;5.70;;
28176;SDS011;15461;41.652;9.378;2023-05-07T05:26:12;8.90;;;5.60;;
28176;SDS011;15461;41.652;9.378;2023-05-07T05:28:38;12.52;;;6.18;;
28176;SDS011;15461;41.652;9.378;2023-05-07T05:31:04;9.55;;;5.57;;
28176;SDS011;15461;41.652;9.378;2023-05-07T05:33:34;19.33;;;6.10;;
28176;SDS011;15461;41.652;9.378;2023-05-07T05:36:03;12.05;;;6.22;;
28176;SDS011;15461;41.652;9.378;2023-05-07T05:38:29;12.10;;;6.53;;
28176;SDS011;15461;41.652;9.378;2023-05-07T05:40:56;8.90;;;6.68;;
28176;SDS011;15461;41.652;9.378;2023-05-07T05:43:22;9.02;;;6.07;;
28176;SDS011;15461;41.652;9.378;2023-05-07T05:45:48;6.85;;;6.15;;
28176;SDS011;15461;41.652;9.378;2023-05-07T05:48:14;11.18;;;6.65;;
28176;SDS011;15461;41.652;9.378;2023-05-07T05:50:41;8.40;;;6.53;;
28176;SDS011;15461;41.652;9.378;2023-05-07T05:53:08;9.43;;;6.32;;
28176;SDS011;15461;41.652;9.378;2023-05-07T05:55:34;6.95;;;5.90;;
28176;SDS011;15461;41.652;9.378;2023-05-07T05:58:00;35.42;;;7.05;;
28176;SDS011;15461;41.652;9.378;2023-05-07T06:00:29;12.93;;;6.40;;
28176;SDS011;15461;41.652;9.378;2023-05-07T06:03:00;8.38;;;5.60;;
28176;SDS011;15461;41.652;9.378;2023-05-07T06:05:27;6.70;;;6.00;;
28176;SDS011;15461;41.652;9.378;2023-05-07T06:07:55;7.03;;;5.82;;
28176;SDS011;15461;41.652;9.378;2023-05-07T06:10:21;14.60;;;6.00;;
28176;SDS011;15461;41.652;9.378;2023-05-07T06:12:47;6.50;;;5.70;;
28176;SDS011;15461;41.652;9.378;2023-05-07T06:15:14;6.75;;;5.47;;
28176;SDS011;15461;41.652;9.378;2023-05-07T06:17:40;7.55;;;5.50;;
28176;SDS011;15461;41.652;9.378;2023-05-07T06:20:09;12.00;;;5.30;;
28176;SDS011;15461;41.652;9.378;2023-05-07T06:22:35;6.80;;;5.20;;
28176;SDS011;15461;41.652;9.378;2023-05-07T06:25:02;9.05;;;5.80;;
28176;SDS011;15461;41.652;9.378;2023-05-07T06:27:28;5.72;;;4.78;;
28176;SDS011;15461;41.652;9.378;2023-05-07T06:29:58;5.55;;;5.05;;
28176;SDS011;15461;41.652;9.378;2023-05-07T06:32:24;7.20;;;4.60;;
28176;SDS011;15461;41.652;9.378;2023-05-07T06:34:51;5.28;;;4.65;;
28176;SDS011;15461;41.652;9.378;2023-05-07T06:37:17;10.98;;;4.95;;
28176;SDS011;15461;41.652;9.378;2023-05-07T06:39:56;5.88;;;4.43;;
28176;SDS011;15461;41.652;9.378;2023-05-07T06:42:25;8.60;;;4.85;;
28176;SDS011;15461;41.652;9.378;2023-05-07T06:44:56;5.03;;;4.07;;
28176;SDS011;15461;41.652;9.378;2023-05-07T06:47:22;5.93;;;4.47;;
28176;SDS011;15461;41.652;9.378;2023-05-07T06:49:51;5.80;;;5.20;;
28176;SDS011;15461;41.652;9.378;2023-05-07T06:52:20;5.70;;;4.30;;
28176;SDS011;15461;41.652;9.378;2023-05-07T06:54:48;6.15;;;4.90;;
28176;SDS011;15461;41.652;9.378;2023-05-07T06:57:16;6.70;;;5.05;;
28176;SDS011;15461;41.652;9.378;2023-05-07T06:59:42;7.00;;;4.90;;
28176;SDS011;15461;41.652;9.378;2023-05-07T07:02:09;4.90;;;4.50;;
28176;SDS011;15461;41.652;9.378;2023-05-07T07:04:35;6.10;;;4.93;;
28176;SDS011;15461;41.652;9.378;2023-05-07T07:07:05;6.35;;;4.30;;
28176;SDS011;15461;41.652;9.378;2023-05-07T07:09:31;7.30;;;4.43;;
28176;SDS011;15461;41.652;9.378;2023-05-07T07:11:59;4.88;;;4.32;;
28176;SDS011;15461;41.652;9.378;2023-05-07T07:14:26;5.13;;;4.63;;
28176;SDS011;15461;41.652;9.378;2023-05-07T07:16:53;4.65;;;4.18;;
28176;SDS011;15461;41.652;9.378;2023-05-07T07:19:20;4.25;;;3.85;;
28176;SDS011;15461;41.652;9.378;2023-05-07T07:21:49;5.38;;;3.78;;
28176;SDS011;15461;41.652;9.378;2023-05-07T07:24:15;4.28;;;3.88;;
28176;SDS011;15461;41.652;9.378;2023-05-07T07:26:47;5.25;;;3.97;;
28176;SDS011;15461;41.652;9.378;2023-05-07T07:29:13;4.78;;;3.67;;
28176;SDS011;15461;41.652;9.378;2023-05-07T07:31:41;4.75;;;3.63;;
28176;SDS011;15461;41.652;9.378;2023-05-07T07:34:08;4.30;;;3.90;;
28176;SDS011;15461;41.652;9.378;2023-05-07T07:36:34;4.82;;;3.80;;
28176;SDS011;15461;41.652;9.378;2023-05-07T07:39:00;6.50;;;3.95;;
28176;SDS011;15461;41.652;9.378;2023-05-07T07:41:27;4.32;;;3.38;;
28176;SDS011;15461;41.652;9.378;2023-05-07T07:43:53;5.55;;;3.90;;
28176;SDS011;15461;41.652;9.378;2023-05-07T07:46:20;4.40;;;3.40;;
28176;SDS011;15461;41.652;9.378;2023-05-07T07:48:47;6.82;;;3.70;;
28176;SDS011;15461;41.652;9.378;2023-05-07T07:51:13;5.03;;;3.88;;
28176;SDS011;15461;41.652;9.378;2023-05-07T07:53:39;5.15;;;3.40;;
28176;SDS011;15461;41.652;9.378;2023-05-07T07:56:06;3.50;;;3.20;;
28176;SDS011;15461;41.652;9.378;2023-05-07T07:58:33;3.85;;;3.45;;
28176;SDS011;15461;41.652;9.378;2023-05-07T08:01:01;5.75;;;3.30;;
28176;SDS011;15461;41.652;9.378;2023-05-07T08:03:27;4.35;;;3.40;;
28176;SDS011;15461;41.652;9.378;2023-05-07T08:05:57;6.03;;;3.60;;
28176;SDS011;15461;41.652;9.378;2023-05-07T08:08:24;4.22;;;3.28;;
28176;SDS011;15461;41.652;9.378;2023-05-07T08:10:51;6.60;;;3.67;;
28176;SDS011;15461;41.652;9.378;2023-05-07T08:13:24;6.70;;;3.92;;
28176;SDS011;15461;41.652;9.378;2023-05-07T08:15:52;7.03;;;3.75;;
28176;SDS011;15461;41.652;9.378;2023-05-07T08:18:18;4.53;;;3.60;;
28176;SDS011;15461;41.652;9.378;2023-05-07T08:20:45;4.55;;;3.70;;
28176;SDS011;15461;41.652;9.378;2023-05-07T08:23:16;3.65;;;3.20;;
28176;SDS011;15461;41.652;9.378;2023-05-07T08:25:43;5.22;;;3.42;;
28176;SDS011;15461;41.652;9.378;2023-05-07T08:28:10;5.63;;;3.28;;
28176;SDS011;15461;41.652;9.378;2023-05-07T08:30:37;2.90;;;2.60;;
28176;SDS011;15461;41.652;9.378;2023-05-07T08:33:03;3.70;;;3.28;;
28176;SDS011;15461;41.652;9.378;2023-05-07T08:35:29;5.10;;;3.17;;
28176;SDS011;15461;41.652;9.378;2023-05-07T08:37:55;3.75;;;2.88;;
28176;SDS011;15461;41.652;9.378;2023-05-07T08:40:23;3.20;;;2.90;;
28176;SDS011;15461;41.652;9.378;2023-05-07T08:42:52;6.00;;;2.90;;
28176;SDS011;15461;41.652;9.378;2023-05-07T08:45:19;4.10;;;2.72;;
28176;SDS011;15461;41.652;9.378;2023-05-07T08:47:50;5.28;;;2.78;;
28176;SDS011;15461;41.652;9.378;2023-05-07T08:50:22;5.13;;;2.65;;
28176;SDS011;15461;41.652;9.378;2023-05-07T08:52:50;2.85;;;2.55;;
28176;SDS011;15461;41.652;9.378;2023-05-07T08:55:17;4.15;;;2.80;;
28176;SDS011;15461;41.652;9.378;2023-05-07T08:57:44;7.15;;;3.22;;
28176;SDS011;15461;41.652;9.378;2023-05-07T09:00:12;2.92;;;2.70;;
28176;SDS011;15461;41.652;9.378;2023-05-07T09:02:39;3.85;;;2.55;;
28176;SDS011;15461;41.652;9.378;2023-05-07T09:05:07;3.35;;;2.75;;
28176;SDS011;15461;41.652;9.378;2023-05-07T09:07:34;4.70;;;2.97;;
28176;SDS011;15461;41.652;9.378;2023-05-07T09:10:02;5.45;;;3.08;;
28176;SDS011;15461;41.652;9.378;2023-05-07T09:12:31;11.50;;;3.28;;
28176;SDS011;15461;41.652;9.378;2023-05-07T09:14:58;6.05;;;3.25;;
28176;SDS011;15461;41.652;9.378;2023-05-07T09:17:26;4.68;;;2.72;;
28176;SDS011;15461;41.652;9.378;2023-05-07T09:19:53;4.63;;;3.10;;
28176;SDS011;15461;41.652;9.378;2023-05-07T09:22:19;4.43;;;3.05;;
28176;SDS011;15461;41.652;9.378;2023-05-07T09:24:59;3.17;;;2.88;;
28176;SDS011;15461;41.652;9.378;2023-05-07T09:27:26;4.05;;;2.78;;
28176;SDS011;15461;41.652;9.378;2023-05-07T09:29:54;3.00;;;2.70;;
28176;SDS011;15461;41.652;9.378;2023-05-07T09:32:20;3.00;;;2.63;;
28176;SDS011;15461;41.652;9.378;2023-05-07T09:34:46;3.85;;;2.40;;
28176;SDS011;15461;41.652;9.378;2023-05-07T09:37:15;4.00;;;3.08;;
28176;SDS011;15461;41.652;9.378;2023-05-07T09:39:42;3.13;;;2.83;;
28176;SDS011;15461;41.652;9.378;2023-05-07T09:42:11;3.35;;;2.75;;
28176;SDS011;15461;41.652;9.378;2023-05-07T09:44:38;4.68;;;2.70;;
28176;SDS011;15461;41.652;9.378;2023-05-07T09:47:09;2.80;;;2.53;;
28176;SDS011;15461;41.652;9.378;2023-05-07T09:49:42;3.20;;;2.85;;
28176;SDS011;15461;41.652;9.378;2023-05-07T09:52:15;4.20;;;3.00;;
28176;SDS011;15461;41.652;9.378;2023-05-07T09:54:47;4.32;;;2.80;;
28176;SDS011;15461;41.652;9.378;2023-05-07T09:57:17;4.18;;;2.90;;
28176;SDS011;15461;41.652;9.378;2023-05-07T10:02:18;4.03;;;3.10;;
28176;SDS011;15461;41.652;9.378;2023-05-07T10:04:49;3.45;;;2.88;;
28176;SDS011;15461;41.652;9.378;2023-05-07T10:07:20;3.25;;;2.90;;
28176;SDS011;15461;41.652;9.378;2023-05-07T10:09:51;3.30;;;2.90;;
28176;SDS011;15461;41.652;9.378;2023-05-07T10:12:24;4.10;;;2.63;;
28176;SDS011;15461;41.652;9.378;2023-05-07T10:14:52;4.38;;;2.80;;
28176;SDS011;15461;41.652;9.378;2023-05-07T10:17:20;3.35;;;3.05;;
28176;SDS011;15461;41.652;9.378;2023-05-07T10:19:48;3.50;;;2.70;;
28176;SDS011;15461;41.652;9.378;2023-05-07T10:22:17;3.30;;;2.72;;
28176;SDS011;15461;41.652;9.378;2023-05-07T10:24:45;4.28;;;2.90;;
28176;SDS011;15461;41.652;9.378;2023-05-07T10:27:16;7.28;;;3.28;;
28176;SDS011;15461;41.652;9.378;2023-05-07T10:32:44;3.13;;;2.70;;
28176;SDS011;15461;41.652;9.378;2023-05-07T10:35:24;4.32;;;2.50;;
28176;SDS011;15461;41.652;9.378;2023-05-07T10:37:53;4.68;;;2.60;;
28176;SDS011;15461;41.652;9.378;2023-05-07T10:40:21;4.53;;;2.70;;
28176;SDS011;15461;41.652;9.378;2023-05-07T10:42:58;4.57;;;2.55;;
28176;SDS011;15461;41.652;9.378;2023-05-07T10:45:35;4.25;;;3.10;;
28176;SDS011;15461;41.652;9.378;2023-05-07T10:50:41;6.82;;;3.30;;
28176;SDS011;15461;41.652;9.378;2023-05-07T10:58:50;4.90;;;3.25;;
28176;SDS011;15461;41.652;9.378;2023-05-07T11:04:21;3.92;;;3.08;;
28176;SDS011;15461;41.652;9.378;2023-05-07T11:15:33;4.15;;;2.83;;
28176;SDS011;15461;41.652;9.378;2023-05-07T11:18:03;4.90;;;3.20;;
28176;SDS011;15461;41.652;9.378;2023-05-07T11:26:16;3.33;;;2.78;;
28176;SDS011;15461;41.652;9.378;2023-05-07T11:28:43;3.05;;;2.75;;
28176;SDS011;15461;41.652;9.378;2023-05-07T11:31:10;4.78;;;2.90;;
28176;SDS011;15461;41.652;9.378;2023-05-07T11:33:38;3.72;;;2.88;;
28176;SDS011;15461;41.652;9.378;2023-05-07T11:36:07;3.70;;;2.80;;
28176;SDS011;15461;41.652;9.378;2023-05-07T11:38:39;5.13;;;3.08;;
28176;SDS011;15461;41.652;9.378;2023-05-07T11:41:06;4.38;;;3.25;;
28176;SDS011;15461;41.652;9.378;2023-05-07T11:43:33;5.07;;;3.20;;
28176;SDS011;15461;41.652;9.378;2023-05-07T11:46:09;3.30;;;3.00;;
28176;SDS011;15461;41.652;9.378;2023-05-07T11:48:36;4.63;;;3.25;;
28176;SDS011;15461;41.652;9.378;2023-05-07T11:51:02;3.95;;;3.13;;
28176;SDS011;15461;41.652;9.378;2023-05-07T11:53:38;4.15;;;2.75;;
28176;SDS011;15461;41.652;9.378;2023-05-07T11:56:08;4.57;;;2.95;;
28176;SDS011;15461;41.652;9.378;2023-05-07T11:58:36;3.78;;;3.10;;
28176;SDS011;15461;41.652;9.378;2023-05-07T12:01:02;4.45;;;2.85;;
28176;SDS011;15461;41.652;9.378;2023-05-07T12:03:29;4.18;;;3.00;;
28176;SDS011;15461;41.652;9.378;2023-05-07T12:05:54;4.32;;;2.78;;
28176;SDS011;15461;41.652;9.378;2023-05-07T12:08:21;4.28;;;2.80;;
28176;SDS011;15461;41.652;9.378;2023-05-07T12:10:48;2.85;;;2.63;;
28176;SDS011;15461;41.652;9.378;2023-05-07T12:13:20;3.88;;;2.78;;
28176;SDS011;15461;41.652;9.378;2023-05-07T12:15:54;3.08;;;2.78;;
28176;SDS011;15461;41.652;9.378;2023-05-07T12:18:21;3.33;;;3.03;;
28176;SDS011;15461;41.652;9.378;2023-05-07T12:20:48;3.10;;;2.80;;
28176;SDS011;15461;41.652;9.378;2023-05-07T12:23:15;3.97;;;2.80;;
28176;SDS011;15461;41.652;9.378;2023-05-07T12:25:42;4.57;;;2.92;;
28176;SDS011;15461;41.652;9.378;2023-05-07T12:28:15;3.95;;;3.30;;
28176;SDS011;15461;41.652;9.378;2023-05-07T12:30:43;4.32;;;2.97;;
28176;SDS011;15461;41.652;9.378;2023-05-07T12:33:09;4.30;;;2.88;;
28176;SDS011;15461;41.652;9.378;2023-05-07T12:35:39;3.72;;;3.10;;
28176;SDS011;15461;41.652;9.378;2023-05-07T12:38:10;4.15;;;3.38;;
28176;SDS011;15461;41.652;9.378;2023-05-07T12:40:38;3.88;;;3.47;;
28176;SDS011;15461;41.652;9.378;2023-05-07T12:43:06;4.00;;;3.28;;
28176;SDS011;15461;41.652;9.378;2023-05-07T12:45:40;4.78;;;3.50;;
28176;SDS011;15461;41.652;9.378;2023-05-07T12:48:07;5.07;;;3.60;;
28176;SDS011;15461;41.652;9.378;2023-05-07T12:50:35;4.03;;;3.60;;
28176;SDS011;15461;41.652;9.378;2023-05-07T12:53:03;7.07;;;3.60;;
28176;SDS011;15461;41.652;9.378;2023-05-07T12:55:40;4.45;;;3.70;;
28176;SDS011;15461;41.652;9.378;2023-05-07T12:58:17;4.28;;;3.75;;
28176;SDS011;15461;41.652;9.378;2023-05-07T13:00:54;4.90;;;3.50;;
28176;SDS011;15461;41.652;9.378;2023-05-07T13:03:36;4.43;;;3.30;;
28176;SDS011;15461;41.652;9.378;2023-05-07T13:06:07;4.45;;;3.42;;
28176;SDS011;15461;41.652;9.378;2023-05-07T13:08:38;4.05;;;3.15;;
28176;SDS011;15461;41.652;9.378;2023-05-07T13:11:08;3.75;;;3.15;;
28176;SDS011;15461;41.652;9.378;2023-05-07T13:13:35;4.15;;;3.53;;
28176;SDS011;15461;41.652;9.378;2023-05-07T13:16:03;4.82;;;3.50;;
28176;SDS011;15461;41.652;9.378;2023-05-07T13:18:30;3.55;;;3.25;;
28176;SDS011;15461;41.652;9.378;2023-05-07T13:20:57;4.03;;;3.38;;
28176;SDS011;15461;41.652;9.378;2023-05-07T13:23:24;4.38;;;3.28;;
28176;SDS011;15461;41.652;9.378;2023-05-07T13:25:50;4.70;;;3.35;;
28176;SDS011;15461;41.652;9.378;2023-05-07T13:28:17;4.07;;;3.17;;
28176;SDS011;15461;41.652;9.378;2023-05-07T13:30:43;3.45;;;2.95;;
28176;SDS011;15461;41.652;9.378;2023-05-07T13:33:09;4.05;;;3.00;;
28176;SDS011;15461;41.652;9.378;2023-05-07T13:35:35;5.65;;;3.20;;
28176;SDS011;15461;41.652;9.378;2023-05-07T13:38:01;6.20;;;3.60;;
28176;SDS011;15461;41.652;9.378;2023-05-07T13:40:27;4.43;;;3.38;;
28176;SDS011;15461;41.652;9.378;2023-05-07T13:42:53;6.53;;;3.55;;
28176;SDS011;15461;41.652;9.378;2023-05-07T13:45:19;6.05;;;3.40;;
28176;SDS011;15461;41.652;9.378;2023-05-07T13:47:45;4.82;;;3.38;;
28176;SDS011;15461;41.652;9.378;2023-05-07T13:50:12;7.70;;;3.80;;
28176;SDS011;15461;41.652;9.378;2023-05-07T13:52:42;5.35;;;3.50;;
28176;SDS011;15461;41.652;9.378;2023-05-07T13:55:11;6.18;;;3.55;;
28176;SDS011;15461;41.652;9.378;2023-05-07T13:57:37;4.40;;;3.30;;
28176;SDS011;15461;41.652;9.378;2023-05-07T14:00:04;6.10;;;4.00;;
28176;SDS011;15461;41.652;9.378;2023-05-07T14:02:40;4.95;;;3.53;;
28176;SDS011;15461;41.652;9.378;2023-05-07T14:05:06;6.95;;;4.05;;
28176;SDS011;15461;41.652;9.378;2023-05-07T14:07:32;6.55;;;3.75;;
28176;SDS011;15461;41.652;9.378;2023-05-07T14:09:58;4.03;;;3.65;;
28176;SDS011;15461;41.652;9.378;2023-05-07T14:12:24;7.18;;;4.10;;
28176;SDS011;15461;41.652;9.378;2023-05-07T14:14:50;5.03;;;3.70;;
28176;SDS011;15461;41.652;9.378;2023-05-07T14:17:16;6.57;;;4.20;;
28176;SDS011;15461;41.652;9.378;2023-05-07T14:19:43;4.07;;;3.53;;
28176;SDS011;15461;41.652;9.378;2023-05-07T14:22:09;5.35;;;4.00;;
28176;SDS011;15461;41.652;9.378;2023-05-07T14:24:35;7.05;;;4.20;;
28176;SDS011;15461;41.652;9.378;2023-05-07T14:27:01;6.63;;;3.97;;
28176;SDS011;15461;41.652;9.378;2023-05-07T14:29:27;6.35;;;3.60;;
28176;SDS011;15461;41.652;9.378;2023-05-07T14:31:53;4.72;;;3.58;;
28176;SDS011;15461;41.652;9.378;2023-05-07T14:34:19;5.65;;;3.58;;
28176;SDS011;15461;41.652;9.378;2023-05-07T14:36:46;4.28;;;3.50;;
28176;SDS011;15461;41.652;9.378;2023-05-07T14:39:12;6.72;;;4.20;;
28176;SDS011;15461;41.652;9.378;2023-05-07T14:41:38;5.85;;;4.13;;
28176;SDS011;15461;41.652;9.378;2023-05-07T14:44:04;6.85;;;3.78;;
28176;SDS011;15461;41.652;9.378;2023-05-07T14:46:30;5.13;;;3.60;;
28176;SDS011;15461;41.652;9.378;2023-05-07T14:48:56;4.72;;;3.53;;
28176;SDS011;15461;41.652;9.378;2023-05-07T14:51:22;5.90;;;3.90;;
28176;SDS011;15461;41.652;9.378;2023-05-07T14:53:49;4.28;;;3.88;;
28176;SDS011;15461;41.652;9.378;2023-05-07T14:56:15;5.18;;;3.70;;
28176;SDS011;15461;41.652;9.378;2023-05-07T14:58:42;6.65;;;3.75;;
28176;SDS011;15461;41.652;9.378;2023-05-07T15:01:09;4.55;;;3.72;;
28176;SDS011;15461;41.652;9.378;2023-05-07T15:03:35;5.68;;;3.88;;
28176;SDS011;15461;41.652;9.378;2023-05-07T15:06:01;5.57;;;3.70;;
28176;SDS011;15461;41.652;9.378;2023-05-07T15:08:27;4.35;;;3.60;;
28176;SDS011;15461;41.652;9.378;2023-05-07T15:10:54;4.22;;;3.83;;
28176;SDS011;15461;41.652;9.378;2023-05-07T15:13:20;14.70;;;3.95;;
28176;SDS011;15461;41.652;9.378;2023-05-07T15:15:46;6.60;;;3.97;;
28176;SDS011;15461;41.652;9.378;2023-05-07T15:18:13;6.57;;;3.38;;
28176;SDS011;15461;41.652;9.378;2023-05-07T15:20:39;4.65;;;3.40;;
28176;SDS011;15461;41.652;9.378;2023-05-07T15:23:06;6.03;;;3.80;;
28176;SDS011;15461;41.652;9.378;2023-05-07T15:25:38;6.78;;;3.72;;